Time;durP1;ratioP1;P1;durP2;ratioP2;P2;SDS_P1;SDS_P2;PMS_P1;PMS_P2;Temp;Humidity;BMP_temperature;BMP_pressure;BME280_temperature;BME280_humidity;BME280_pressure;Samples;Min_cycle;Max_cycle;Signal;HPM_P1;HPM_P2
2024/01/24 00:01:20;;;;;;;7.47;3.23;;;9.80;99.90;;;;;;5043624;28;20429;-67
2024/01/24 00:03:48;;;;;;;6.40;3.00;;;9.90;99.90;;;;;;5063507;28;20705;-67
2024/01/24 00:06:17;;;;;;;8.20;3.80;;;9.90;99.90;;;;;;5073636;28;20490;-68
2024/01/24 00:08:45;;;;;;;6.70;3.10;;;9.90;99.90;;;;;;5050901;28;21098;-67
2024/01/24 00:11:11;;;;;;;12.17;3.60;;;9.90;99.90;;;;;;5065655;28;20425;-67
2024/01/24 00:13:42;;;;;;;5.13;3.20;;;9.90;99.90;;;;;;5083006;28;20797;-67
2024/01/24 00:16:08;;;;;;;5.57;3.07;;;9.90;99.90;;;;;;5061223;28;20534;-67
2024/01/24 00:18:34;;;;;;;6.57;2.87;;;9.90;99.90;;;;;;5063914;28;20433;-68
2024/01/24 00:21:02;;;;;;;4.90;3.47;;;10.00;99.90;;;;;;5082588;28;20424;-68
2024/01/24 00:23:28;;;;;;;6.60;3.37;;;10.00;99.90;;;;;;5064522;28;20879;-67
2024/01/24 00:25:57;;;;;;;9.73;3.60;;;10.00;99.90;;;;;;5083782;28;20421;-68
2024/01/24 00:28:26;;;;;;;5.60;3.67;;;10.00;99.90;;;;;;5083323;28;20883;-67
2024/01/24 00:30:52;;;;;;;7.83;3.90;;;10.00;99.90;;;;;;5066457;28;20410;-67
2024/01/24 00:33:22;;;;;;;9.47;3.13;;;10.10;99.90;;;;;;5089098;27;20511;-67
2024/01/24 00:35:53;;;;;;;6.70;3.60;;;10.10;99.90;;;;;;5076192;27;20891;-67
2024/01/24 00:38:22;;;;;;;6.83;3.10;;;10.10;99.90;;;;;;5084040;28;20432;-67
2024/01/24 00:40:48;;;;;;;8.13;2.73;;;10.10;99.90;;;;;;5062375;27;20474;-68
2024/01/24 00:43:16;;;;;;;6.90;3.30;;;10.10;99.90;;;;;;5092394;28;20428;-67
2024/01/24 00:45:43;;;;;;;6.37;3.20;;;10.20;99.90;;;;;;5064307;27;20523;-67
2024/01/24 00:48:12;;;;;;;3.63;3.07;;;10.20;99.90;;;;;;5056608;28;20473;-68
2024/01/24 00:50:41;;;;;;;9.10;3.43;;;10.20;99.90;;;;;;5059826;28;20970;-68
2024/01/24 00:53:17;;;;;;;8.37;3.47;;;10.20;99.90;;;;;;5115201;27;20830;-68
2024/01/24 00:55:48;;;;;;;6.37;3.50;;;10.20;99.90;;;;;;5079637;27;20451;-67
2024/01/24 00:58:14;;;;;;;6.30;3.30;;;10.20;99.90;;;;;;5089312;28;20771;-66
2024/01/24 01:00:40;;;;;;;5.70;3.33;;;10.20;99.90;;;;;;5078849;28;20432;-68
2024/01/24 01:03:08;;;;;;;5.47;3.50;;;10.30;99.90;;;;;;5073198;28;20456;-70
2024/01/24 01:05:34;;;;;;;10.33;3.23;;;10.30;99.90;;;;;;5062688;28;20501;-71
2024/01/24 01:08:02;;;;;;;7.93;3.60;;;10.30;99.90;;;;;;5082634;28;20585;-73
2024/01/24 01:10:30;;;;;;;4.57;3.10;;;10.30;99.90;;;;;;5083006;28;20524;-74
2024/01/24 01:12:56;;;;;;;4.13;3.40;;;10.30;99.90;;;;;;5102920;27;20489;-73
2024/01/24 01:15:24;;;;;;;5.80;3.43;;;10.30;99.90;;;;;;5105067;27;20519;-72
2024/01/24 01:17:51;;;;;;;3.70;3.00;;;10.40;99.90;;;;;;5070504;28;20443;-67
2024/01/24 01:20:22;;;;;;;3.53;2.67;;;10.40;99.90;;;;;;5047349;28;20425;-67
2024/01/24 01:22:48;;;;;;;4.77;3.23;;;10.40;99.90;;;;;;5066847;27;20432;-67
2024/01/24 01:25:14;;;;;;;4.90;3.07;;;10.40;99.90;;;;;;5088632;28;20451;-67
2024/01/24 01:27:42;;;;;;;3.80;2.80;;;10.40;99.90;;;;;;5103680;27;20902;-67
2024/01/24 01:30:09;;;;;;;7.13;2.80;;;10.40;99.90;;;;;;5072455;28;20421;-67
2024/01/24 01:32:38;;;;;;;6.90;2.90;;;10.50;99.90;;;;;;5090799;28;20774;-67
2024/01/24 01:35:09;;;;;;;4.87;2.90;;;10.50;99.90;;;;;;5101685;28;20444;-67
2024/01/24 01:37:38;;;;;;;5.10;2.70;;;10.50;99.90;;;;;;5080553;28;20430;-67
2024/01/24 01:40:08;;;;;;;3.97;2.50;;;10.50;99.90;;;;;;5071465;28;20967;-67
2024/01/24 01:42:43;;;;;;;3.70;2.80;;;10.50;99.90;;;;;;5043707;28;20420;-68
2024/01/24 01:45:09;;;;;;;3.63;2.33;;;10.50;99.90;;;;;;5063913;28;20451;-67
2024/01/24 01:47:36;;;;;;;10.77;3.23;;;10.50;99.90;;;;;;5080099;28;20464;-67
2024/01/24 01:50:10;;;;;;;7.93;2.80;;;10.60;99.90;;;;;;5091544;28;20432;-68
2024/01/24 01:52:38;;;;;;;5.33;2.47;;;10.60;99.90;;;;;;5075407;28;20435;-68
2024/01/24 01:55:11;;;;;;;2.77;2.50;;;10.60;99.90;;;;;;5099265;28;20493;-67
2024/01/24 01:57:45;;;;;;;4.00;2.83;;;10.60;99.90;;;;;;5089256;28;20808;-68
2024/01/24 02:00:20;;;;;;;3.80;2.50;;;10.60;99.90;;;;;;5083380;28;20442;-68
2024/01/24 02:02:49;;;;;;;2.97;2.60;;;10.70;99.90;;;;;;5100789;28;20412;-68
2024/01/24 02:05:18;;;;;;;6.87;2.70;;;10.70;99.90;;;;;;5064974;28;20456;-67
2024/01/24 02:07:47;;;;;;;3.93;2.60;;;10.70;99.90;;;;;;5074301;28;20472;-68
2024/01/24 02:10:14;;;;;;;5.10;2.40;;;10.70;99.90;;;;;;5091600;28;20796;-68
2024/01/24 02:12:41;;;;;;;3.90;2.90;;;10.70;99.90;;;;;;5080321;28;20416;-71
2024/01/24 02:15:10;;;;;;;4.37;2.50;;;10.80;99.90;;;;;;5082938;28;20498;-72
2024/01/24 02:17:39;;;;;;;2.33;2.10;;;10.80;99.90;;;;;;5045634;28;20437;-71
2024/01/24 02:20:12;;;;;;;3.50;2.70;;;10.80;99.90;;;;;;5067680;28;20470;-72
2024/01/24 02:22:38;;;;;;;3.27;2.40;;;10.80;99.90;;;;;;5101882;28;20926;-72
2024/01/24 02:25:07;;;;;;;2.57;2.13;;;10.80;99.90;;;;;;5076518;28;20645;-71
2024/01/24 02:27:38;;;;;;;2.40;2.00;;;10.80;99.90;;;;;;5080921;28;20580;-72
2024/01/24 02:30:07;;;;;;;2.50;1.90;;;10.80;99.90;;;;;;5055667;28;20446;-72
2024/01/24 02:32:39;;;;;;;2.70;1.90;;;10.90;99.90;;;;;;5059462;28;20729;-71
2024/01/24 02:35:08;;;;;;;2.30;2.10;;;10.90;99.90;;;;;;5081917;28;20436;-71
2024/01/24 02:37:34;;;;;;;2.50;2.00;;;10.90;99.90;;;;;;5076869;28;20448;-70
2024/01/24 02:40:02;;;;;;;2.40;2.03;;;10.90;99.90;;;;;;5082033;28;20523;-73
2024/01/24 02:42:28;;;;;;;3.40;2.00;;;10.90;99.90;;;;;;5093869;28;20427;-73
2024/01/24 02:44:59;;;;;;;3.53;1.87;;;11.00;99.90;;;;;;5098732;28;20443;-73
2024/01/24 02:47:25;;;;;;;2.23;1.90;;;11.00;99.90;;;;;;5077783;28;20567;-73
2024/01/24 02:49:51;;;;;;;2.70;1.80;;;11.00;99.90;;;;;;5099362;28;20416;-72
2024/01/24 02:52:17;;;;;;;2.43;1.80;;;11.00;99.90;;;;;;5080244;28;20514;-73
2024/01/24 02:54:46;;;;;;;3.33;2.57;;;11.00;99.90;;;;;;5058803;28;20456;-73
2024/01/24 02:57:12;;;;;;;2.30;1.60;;;11.00;99.90;;;;;;5099628;28;20428;-73
2024/01/24 02:59:41;;;;;;;2.23;2.03;;;11.10;99.90;;;;;;5095991;28;20468;-73
2024/01/24 03:02:07;;;;;;;3.60;2.37;;;11.10;99.90;;;;;;5070851;28;20895;-73
2024/01/24 03:04:33;;;;;;;4.70;2.03;;;11.10;99.90;;;;;;5078982;28;20959;-73
2024/01/24 03:06:59;;;;;;;2.23;1.60;;;11.10;99.90;;;;;;5075002;28;20471;-73
2024/01/24 03:09:27;;;;;;;3.60;1.73;;;11.10;99.90;;;;;;5075510;28;20433;-73
2024/01/24 03:11:55;;;;;;;2.47;1.73;;;11.10;99.90;;;;;;5075007;28;20433;-73
2024/01/24 03:14:21;;;;;;;2.13;1.80;;;11.10;99.90;;;;;;5062240;28;20459;-73
2024/01/24 03:16:50;;;;;;;3.30;1.50;;;11.10;99.90;;;;;;5074727;28;20427;-73
2024/01/24 03:19:20;;;;;;;1.60;1.50;;;11.10;99.90;;;;;;5077315;28;20468;-75
2024/01/24 03:21:48;;;;;;;3.20;1.70;;;11.20;99.90;;;;;;5080290;28;20433;-74
2024/01/24 03:24:15;;;;;;;1.60;1.50;;;11.20;99.90;;;;;;5103009;28;20454;-75
2024/01/24 03:26:42;;;;;;;2.40;1.87;;;11.20;99.90;;;;;;5067021;28;20456;-74
2024/01/24 03:29:10;;;;;;;1.90;1.80;;;11.20;99.90;;;;;;5083281;28;20503;-74
2024/01/24 03:31:36;;;;;;;2.50;1.60;;;11.20;99.90;;;;;;5099015;28;20501;-74
2024/01/24 03:34:07;;;;;;;1.37;1.27;;;11.20;99.90;;;;;;5080431;28;20810;-74
2024/01/24 03:36:33;;;;;;;3.00;1.77;;;11.20;99.90;;;;;;5098911;28;20430;-74
2024/01/24 03:39:00;;;;;;;1.90;1.70;;;11.30;99.90;;;;;;5067805;28;20982;-73
2024/01/24 03:41:28;;;;;;;2.47;1.60;;;11.30;99.90;;;;;;5078899;28;20425;-73
2024/01/24 03:43:56;;;;;;;1.57;1.33;;;11.30;99.90;;;;;;5083809;28;20432;-72
2024/01/24 03:46:22;;;;;;;1.80;1.57;;;11.30;99.90;;;;;;5078597;28;20865;-72
2024/01/24 03:48:48;;;;;;;1.90;1.50;;;11.30;99.90;;;;;;5098493;28;21056;-73
2024/01/24 03:51:14;;;;;;;1.47;1.37;;;11.30;99.90;;;;;;5083004;28;20436;-73
2024/01/24 03:53:40;;;;;;;1.60;1.50;;;11.30;99.90;;;;;;5098013;28;20413;-73
2024/01/24 03:56:06;;;;;;;2.17;1.53;;;11.30;99.90;;;;;;5061879;28;20898;-73
2024/01/24 03:58:32;;;;;;;2.47;1.40;;;11.30;99.90;;;;;;5080697;28;20440;-73
2024/01/24 04:00:58;;;;;;;1.37;1.27;;;11.30;99.90;;;;;;5080345;28;20448;-73
2024/01/24 04:03:24;;;;;;;4.13;1.60;;;11.40;99.90;;;;;;5083204;28;20420;-73
2024/01/24 04:05:50;;;;;;;1.67;1.20;;;11.40;99.90;;;;;;5093738;28;20970;-73
2024/01/24 04:08:17;;;;;;;1.20;1.10;;;11.40;99.90;;;;;;5101809;28;20475;-72
2024/01/24 04:10:45;;;;;;;1.60;1.40;;;11.30;99.90;;;;;;5077744;28;20421;-72
2024/01/24 04:13:11;;;;;;;1.40;1.30;;;11.40;99.90;;;;;;5084396;28;20424;-72
2024/01/24 04:15:37;;;;;;;1.40;1.30;;;11.40;99.90;;;;;;5077729;28;20460;-73
2024/01/24 04:18:06;;;;;;;1.63;1.53;;;11.40;99.90;;;;;;5074182;28;20949;-72
2024/01/24 04:20:32;;;;;;;1.73;1.63;;;11.40;99.90;;;;;;5049866;28;20951;-72
2024/01/24 04:22:59;;;;;;;1.30;1.20;;;11.40;99.90;;;;;;5100129;28;20448;-73
2024/01/24 04:25:25;;;;;;;1.40;1.30;;;11.40;99.90;;;;;;5095844;28;20842;-72
2024/01/24 04:27:54;;;;;;;1.53;1.30;;;11.40;99.90;;;;;;5100000;28;20876;-73
2024/01/24 04:30:20;;;;;;;1.37;1.27;;;11.40;99.90;;;;;;5077627;28;20417;-73
2024/01/24 04:32:47;;;;;;;1.43;1.33;;;11.40;99.90;;;;;;5076310;28;20472;-73
2024/01/24 04:35:15;;;;;;;1.20;1.10;;;11.40;99.90;;;;;;5079759;28;20820;-73
2024/01/24 04:37:44;;;;;;;1.40;1.17;;;11.40;99.90;;;;;;5078464;28;20535;-73
2024/01/24 04:40:14;;;;;;;2.27;2.07;;;11.40;99.90;;;;;;5079058;28;21037;-73
2024/01/24 04:42:40;;;;;;;1.43;1.20;;;11.40;99.90;;;;;;5078149;28;20469;-72
2024/01/24 04:45:07;;;;;;;1.83;1.20;;;11.40;99.90;;;;;;5079224;28;20456;-78
2024/01/24 04:47:33;;;;;;;1.40;1.30;;;11.40;99.90;;;;;;5080264;28;20484;-77
2024/01/24 04:50:02;;;;;;;1.13;1.03;;;11.40;99.90;;;;;;5080101;28;20436;-75
2024/01/24 04:52:35;;;;;;;1.30;1.20;;;11.40;99.90;;;;;;5079710;28;20485;-74
2024/01/24 04:55:04;;;;;;;1.63;1.50;;;11.40;99.90;;;;;;5079273;28;21171;-75
2024/01/24 04:57:30;;;;;;;1.43;1.33;;;11.30;99.90;;;;;;5063824;28;20853;-78
2024/01/24 04:59:58;;;;;;;4.47;1.27;;;11.30;99.90;;;;;;5052608;28;20433;-73
2024/01/24 05:02:27;;;;;;;3.77;1.10;;;11.30;99.90;;;;;;5062984;28;20977;-76
2024/01/24 05:04:56;;;;;;;4.23;1.63;;;11.30;99.90;;;;;;5079456;28;20474;-77
2024/01/24 05:07:24;;;;;;;3.43;1.60;;;11.40;99.90;;;;;;5075588;28;20465;-75
2024/01/24 05:09:50;;;;;;;2.60;1.60;;;11.40;99.90;;;;;;5079849;28;20425;-76
2024/01/24 05:12:19;;;;;;;3.40;2.00;;;11.30;99.90;;;;;;5079680;28;20461;-77
2024/01/24 05:14:45;;;;;;;3.13;1.70;;;11.40;99.90;;;;;;5080653;28;20664;-78
2024/01/24 05:17:16;;;;;;;5.10;2.03;;;11.30;99.90;;;;;;5062903;28;20828;-78
2024/01/24 05:19:42;;;;;;;6.37;1.60;;;11.40;99.90;;;;;;5078402;28;20444;-78
2024/01/24 05:22:12;;;;;;;5.40;1.90;;;11.30;99.90;;;;;;5074921;28;20527;-77
2024/01/24 05:24:43;;;;;;;4.67;1.90;;;11.30;99.90;;;;;;5079212;28;21339;-77
2024/01/24 05:27:09;;;;;;;5.13;1.67;;;11.40;99.90;;;;;;5076194;28;21017;-77
2024/01/24 05:29:41;;;;;;;6.77;2.60;;;11.40;99.90;;;;;;5078953;28;20429;-77
2024/01/24 05:32:09;;;;;;;5.37;1.67;;;11.30;99.90;;;;;;5076573;28;20451;-77
2024/01/24 05:34:38;;;;;;;6.87;1.80;;;11.30;99.90;;;;;;5080740;28;20451;-77
2024/01/24 05:37:04;;;;;;;4.73;1.77;;;11.30;99.90;;;;;;5062415;28;20773;-77
2024/01/24 05:39:33;;;;;;;3.87;1.80;;;11.30;99.90;;;;;;5078580;28;20425;-77
2024/01/24 05:42:01;;;;;;;7.73;2.13;;;11.30;99.90;;;;;;5076067;28;20864;-76
2024/01/24 05:44:31;;;;;;;11.13;2.43;;;11.30;99.90;;;;;;5081528;28;20640;-77
2024/01/24 05:46:59;;;;;;;6.20;1.97;;;11.30;99.90;;;;;;5064720;28;20509;-78
2024/01/24 05:49:25;;;;;;;6.00;1.77;;;11.30;99.90;;;;;;5079651;28;20987;-77
2024/01/24 05:51:52;;;;;;;8.27;2.73;;;11.30;99.90;;;;;;5097394;28;20476;-77
2024/01/24 05:54:18;;;;;;;8.50;2.40;;;11.30;99.90;;;;;;5059515;28;20501;-77
2024/01/24 05:56:44;;;;;;;8.73;2.30;;;11.30;99.90;;;;;;5096311;28;20920;-76
2024/01/24 05:59:10;;;;;;;4.27;2.30;;;11.30;99.90;;;;;;5062945;28;21004;-77
2024/01/24 06:01:36;;;;;;;8.23;3.10;;;11.30;99.90;;;;;;5100128;28;20452;-78
2024/01/24 06:04:02;;;;;;;8.30;1.80;;;11.30;99.90;;;;;;5053792;28;20471;-77
2024/01/24 06:06:31;;;;;;;5.90;2.30;;;11.30;99.90;;;;;;5079403;28;20498;-78
2024/01/24 06:08:58;;;;;;;11.23;2.40;;;11.40;99.90;;;;;;5083104;28;20732;-77
2024/01/24 06:11:24;;;;;;;6.30;2.17;;;11.30;99.90;;;;;;5065834;28;20566;-78
2024/01/24 06:13:55;;;;;;;7.20;2.50;;;11.30;99.90;;;;;;5077017;28;20441;-78
2024/01/24 06:16:22;;;;;;;4.73;2.07;;;11.30;99.90;;;;;;5076603;28;20435;-78
2024/01/24 06:18:48;;;;;;;4.77;2.93;;;11.30;99.90;;;;;;5067357;28;20934;-77
2024/01/24 06:21:14;;;;;;;5.07;2.77;;;11.30;99.90;;;;;;5097571;28;21059;-78
2024/01/24 06:23:40;;;;;;;7.57;2.73;;;11.30;99.90;;;;;;5081005;28;20468;-78
2024/01/24 06:26:09;;;;;;;8.00;2.67;;;11.30;99.90;;;;;;5050884;28;20489;-77
2024/01/24 06:28:42;;;;;;;10.00;2.70;;;11.30;99.90;;;;;;5071156;28;21028;-78
2024/01/24 06:31:08;;;;;;;10.13;2.73;;;11.30;99.90;;;;;;5083861;28;20913;-77
2024/01/24 06:33:39;;;;;;;11.03;3.40;;;11.30;99.90;;;;;;5046817;28;20850;-77
2024/01/24 06:36:05;;;;;;;6.33;2.90;;;11.30;99.90;;;;;;5076247;28;20513;-77
2024/01/24 06:38:31;;;;;;;9.87;3.53;;;11.30;99.90;;;;;;5050409;28;20428;-76
2024/01/24 06:41:00;;;;;;;7.23;2.70;;;11.30;99.90;;;;;;5084968;28;20532;-77
2024/01/24 06:43:28;;;;;;;9.97;2.30;;;11.30;99.90;;;;;;5081967;28;20457;-76
2024/01/24 06:45:55;;;;;;;12.10;2.90;;;11.30;99.90;;;;;;5052315;28;20944;-77
2024/01/24 06:48:28;;;;;;;13.10;3.10;;;11.40;99.90;;;;;;5081647;28;21078;-78
2024/01/24 06:50:55;;;;;;;13.37;3.13;;;11.40;99.90;;;;;;5079194;28;20509;-78
2024/01/24 06:53:23;;;;;;;10.30;3.47;;;11.30;99.90;;;;;;5046247;28;20439;-73
2024/01/24 06:55:56;;;;;;;8.97;3.30;;;11.30;99.90;;;;;;5091791;28;20842;-72
2024/01/24 06:58:22;;;;;;;19.13;2.90;;;11.40;99.90;;;;;;5086507;28;20530;-76
2024/01/24 07:00:53;;;;;;;12.83;3.17;;;11.30;99.90;;;;;;5106294;28;20629;-76
2024/01/24 07:03:19;;;;;;;14.40;2.90;;;11.40;99.90;;;;;;5070445;28;20540;-75
2024/01/24 07:05:45;;;;;;;12.70;4.30;;;11.30;99.90;;;;;;5071229;28;20527;-75
2024/01/24 07:08:13;;;;;;;9.03;3.80;;;11.40;99.90;;;;;;5089109;28;20477;-75
2024/01/24 07:10:40;;;;;;;9.30;3.60;;;11.40;99.90;;;;;;5087154;28;20575;-75
2024/01/24 07:13:06;;;;;;;17.83;3.53;;;11.30;99.90;;;;;;5085352;28;20423;-76
2024/01/24 07:15:37;;;;;;;11.97;3.40;;;11.30;99.90;;;;;;5077997;28;20439;-75
2024/01/24 07:18:07;;;;;;;19.53;4.17;;;11.30;99.90;;;;;;5116325;28;20439;-77
2024/01/24 07:20:33;;;;;;;12.03;3.90;;;11.30;99.90;;;;;;5068951;28;21219;-75
2024/01/24 07:23:01;;;;;;;15.93;4.10;;;11.30;99.90;;;;;;5089620;28;20439;-75
2024/01/24 07:25:29;;;;;;;13.77;4.50;;;11.30;99.90;;;;;;5071525;28;20722;-76
2024/01/24 07:27:55;;;;;;;13.07;3.13;;;11.30;99.90;;;;;;5070061;28;20514;-77
2024/01/24 07:30:22;;;;;;;28.07;5.30;;;11.30;99.90;;;;;;5058263;28;20763;-76
2024/01/24 07:32:49;;;;;;;13.30;3.90;;;11.30;99.90;;;;;;5084725;28;20497;-75
2024/01/24 07:35:15;;;;;;;16.33;3.80;;;11.30;99.90;;;;;;5084525;28;20467;-76
2024/01/24 07:37:41;;;;;;;19.60;4.63;;;11.30;99.90;;;;;;5085570;28;20425;-74
2024/01/24 07:40:10;;;;;;;14.80;4.80;;;11.30;99.90;;;;;;5102421;28;20553;-74
2024/01/24 07:42:36;;;;;;;14.73;4.80;;;11.30;99.90;;;;;;5067843;28;20539;-76
2024/01/24 07:45:03;;;;;;;20.70;7.63;;;11.30;99.90;;;;;;5085138;28;20466;-76
2024/01/24 07:47:29;;;;;;;18.43;5.27;;;11.30;99.90;;;;;;5079466;28;20460;-75
2024/01/24 07:49:55;;;;;;;16.70;4.03;;;11.30;99.90;;;;;;5064236;28;20436;-76
2024/01/24 07:52:24;;;;;;;14.53;4.30;;;11.30;99.90;;;;;;5099117;28;20892;-75
2024/01/24 07:54:50;;;;;;;18.10;5.10;;;11.30;99.90;;;;;;5082527;28;20432;-76
2024/01/24 07:57:18;;;;;;;11.00;3.40;;;11.30;99.90;;;;;;5079143;28;20498;-77
2024/01/24 07:59:46;;;;;;;17.70;6.63;;;11.30;99.90;;;;;;5080958;28;20596;-76
2024/01/24 08:02:16;;;;;;;19.47;4.80;;;11.30;99.90;;;;;;5062587;28;21229;-75
2024/01/24 08:04:43;;;;;;;17.10;4.33;;;11.30;99.90;;;;;;5098429;28;20445;-75
2024/01/24 08:07:14;;;;;;;16.47;4.23;;;11.30;99.90;;;;;;5060088;28;20478;-76
2024/01/24 08:09:40;;;;;;;17.73;5.40;;;11.30;99.90;;;;;;5099508;28;20443;-76
2024/01/24 08:12:09;;;;;;;18.70;4.10;;;11.30;99.90;;;;;;5079198;28;20432;-76
2024/01/24 08:14:38;;;;;;;19.63;5.13;;;11.30;99.90;;;;;;5095435;28;20441;-76
2024/01/24 08:17:06;;;;;;;20.10;5.53;;;11.30;99.90;;;;;;5081545;28;20799;-76
2024/01/24 08:19:32;;;;;;;14.23;4.27;;;11.30;99.90;;;;;;5059493;28;20461;-76
2024/01/24 08:22:02;;;;;;;18.33;5.63;;;11.30;99.90;;;;;;5081155;28;20841;-75
2024/01/24 08:24:28;;;;;;;19.07;4.80;;;11.30;99.90;;;;;;5061177;28;20442;-77
2024/01/24 08:26:54;;;;;;;10.40;3.90;;;11.30;99.90;;;;;;5058987;28;20543;-74
2024/01/24 08:29:25;;;;;;;13.73;4.50;;;11.30;99.90;;;;;;5097997;28;20442;-75
2024/01/24 08:31:51;;;;;;;16.53;5.00;;;11.30;99.90;;;;;;5066263;28;20468;-75
2024/01/24 08:34:18;;;;;;;22.27;5.83;;;11.30;99.90;;;;;;5063577;28;20462;-75
2024/01/24 08:36:45;;;;;;;16.07;4.60;;;11.30;99.90;;;;;;5077416;28;20440;-75
2024/01/24 08:39:14;;;;;;;13.93;5.10;;;11.20;99.90;;;;;;5054406;28;20486;-75
2024/01/24 08:41:43;;;;;;;22.80;6.13;;;11.30;99.90;;;;;;5073253;28;20514;-75
2024/01/24 08:44:12;;;;;;;16.40;4.00;;;11.30;99.90;;;;;;5059433;28;20452;-75
2024/01/24 08:46:38;;;;;;;19.50;4.77;;;11.30;99.90;;;;;;5097032;28;20488;-75
2024/01/24 08:49:06;;;;;;;22.07;5.40;;;11.30;99.90;;;;;;5047956;28;20467;-76
2024/01/24 08:51:35;;;;;;;17.30;4.83;;;11.20;99.90;;;;;;5078221;28;20439;-76
2024/01/24 08:54:04;;;;;;;22.47;5.37;;;11.20;99.90;;;;;;5077709;28;20456;-75
2024/01/24 08:56:30;;;;;;;21.97;6.00;;;11.20;99.90;;;;;;5092062;28;20825;-75
2024/01/24 08:58:55;;;;;;;21.23;4.50;;;11.20;99.90;;;;;;5056869;28;20937;-75
2024/01/24 09:01:22;;;;;;;20.50;5.43;;;11.20;99.90;;;;;;5081267;28;20836;-76
2024/01/24 09:03:49;;;;;;;14.00;5.13;;;11.20;99.90;;;;;;5076255;28;20751;-76
2024/01/24 09:06:15;;;;;;;15.17;5.23;;;11.20;99.90;;;;;;5077749;28;20467;-75
2024/01/24 09:08:44;;;;;;;18.07;5.90;;;11.20;99.90;;;;;;5095360;28;20471;-74
2024/01/24 09:11:10;;;;;;;19.47;5.07;;;11.20;99.90;;;;;;5097310;28;20446;-76
2024/01/24 09:13:39;;;;;;;21.80;5.40;;;11.20;99.90;;;;;;5060477;28;20966;-75
2024/01/24 09:16:07;;;;;;;22.30;5.27;;;11.20;99.90;;;;;;5081625;28;20524;-75
2024/01/24 09:18:38;;;;;;;17.80;4.77;;;11.30;99.90;;;;;;5084266;28;20815;-75
2024/01/24 09:21:04;;;;;;;15.83;4.90;;;11.20;99.90;;;;;;5088965;28;20451;-74
2024/01/24 09:23:32;;;;;;;17.80;5.87;;;11.20;99.90;;;;;;5057311;28;20911;-74
2024/01/24 09:25:59;;;;;;;17.80;4.97;;;11.20;99.90;;;;;;5070995;28;20428;-74
2024/01/24 09:28:25;;;;;;;18.60;5.47;;;11.20;99.90;;;;;;5081784;28;20456;-74
2024/01/24 09:30:52;;;;;;;24.20;5.50;;;11.20;99.90;;;;;;5084047;28;20421;-75
2024/01/24 09:33:21;;;;;;;21.83;6.07;;;11.20;99.90;;;;;;5058151;28;20464;-74
2024/01/24 09:35:47;;;;;;;21.97;5.30;;;11.30;99.90;;;;;;5043509;28;20444;-74
2024/01/24 09:38:15;;;;;;;20.03;5.60;;;11.20;99.90;;;;;;5039980;28;20497;-73
2024/01/24 09:40:42;;;;;;;21.60;5.50;;;11.20;99.90;;;;;;5068033;28;20447;-75
2024/01/24 09:43:10;;;;;;;25.67;5.73;;;11.20;99.90;;;;;;5054910;28;20494;-75
2024/01/24 09:45:43;;;;;;;17.00;5.70;;;11.20;99.90;;;;;;5075018;28;20561;-74
2024/01/24 09:48:14;;;;;;;22.97;5.50;;;11.20;99.90;;;;;;5061096;28;20533;-74
2024/01/24 09:50:45;;;;;;;19.03;5.90;;;11.30;99.90;;;;;;5092347;28;20437;-75
2024/01/24 09:53:15;;;;;;;22.57;5.43;;;11.20;99.90;;;;;;5074404;28;20428;-74
2024/01/24 09:55:43;;;;;;;18.33;7.60;;;11.20;99.90;;;;;;5087677;28;20503;-75
2024/01/24 09:58:09;;;;;;;24.10;6.23;;;11.20;99.90;;;;;;5056328;28;20420;-75
2024/01/24 10:00:38;;;;;;;20.43;6.23;;;11.20;99.90;;;;;;5073200;28;20989;-74
2024/01/24 10:03:06;;;;;;;23.30;6.33;;;11.20;99.90;;;;;;5072271;28;20424;-74
2024/01/24 10:05:34;;;;;;;20.20;4.87;;;11.20;99.90;;;;;;5076059;28;21284;-75
2024/01/24 10:08:00;;;;;;;22.73;5.30;;;11.20;99.90;;;;;;5074991;28;20475;-75
2024/01/24 10:10:29;;;;;;;22.30;5.40;;;11.20;99.90;;;;;;5063094;28;20424;-74
2024/01/24 10:12:55;;;;;;;22.87;7.27;;;11.20;99.90;;;;;;5079106;28;20993;-74
2024/01/24 10:15:26;;;;;;;17.70;5.20;;;11.20;99.90;;;;;;5078353;28;20953;-74
2024/01/24 10:17:53;;;;;;;20.53;6.37;;;11.20;99.90;;;;;;5077605;28;20535;-74
2024/01/24 10:20:19;;;;;;;13.87;4.83;;;11.20;99.90;;;;;;5086976;28;20454;-74
2024/01/24 10:22:45;;;;;;;18.03;5.37;;;11.30;99.90;;;;;;5055916;28;20440;-74
2024/01/24 10:25:12;;;;;;;16.70;5.33;;;11.20;99.90;;;;;;5074195;28;20440;-73
2024/01/24 10:27:39;;;;;;;19.20;6.07;;;11.20;99.90;;;;;;5088701;28;20545;-71
2024/01/24 10:30:12;;;;;;;19.50;5.23;;;11.20;99.90;;;;;;5094096;28;20857;-73
2024/01/24 10:32:48;;;;;;;23.40;6.87;;;11.20;99.90;;;;;;5090764;28;20478;-72
2024/01/24 10:35:14;;;;;;;18.17;5.73;;;11.20;99.90;;;;;;5061711;28;20448;-72
2024/01/24 10:37:48;;;;;;;20.57;4.77;;;11.20;99.90;;;;;;5073107;28;20473;-71
2024/01/24 10:40:15;;;;;;;23.63;5.67;;;11.20;99.90;;;;;;5073076;28;20858;-71
2024/01/24 10:42:53;;;;;;;24.90;5.50;;;11.20;99.90;;;;;;5098978;28;20481;-71
2024/01/24 10:45:25;;;;;;;15.70;4.93;;;11.30;99.90;;;;;;5065447;28;20459;-71
2024/01/24 10:47:52;;;;;;;17.97;7.60;;;11.20;99.90;;;;;;5065490;28;20472;-72
2024/01/24 10:50:20;;;;;;;24.53;5.80;;;11.20;99.90;;;;;;5066296;28;20561;-72
2024/01/24 10:52:47;;;;;;;24.07;6.37;;;11.30;99.90;;;;;;5069372;28;20440;-72
2024/01/24 10:55:19;;;;;;;19.60;5.90;;;11.20;99.90;;;;;;5087282;28;20515;-72
2024/01/24 10:57:47;;;;;;;21.60;4.93;;;11.30;99.90;;;;;;5062926;28;20425;-72
2024/01/24 11:00:22;;;;;;;21.60;5.10;;;11.30;99.90;;;;;;5063912;28;20515;-72
2024/01/24 11:02:52;;;;;;;25.13;7.47;;;11.30;99.90;;;;;;5064582;28;20467;-71
2024/01/24 11:05:36;;;;;;;22.30;5.77;;;11.30;99.90;;;;;;5046565;28;20448;-71
2024/01/24 11:08:16;;;;;;;25.60;5.90;;;11.30;99.90;;;;;;5079161;28;20951;-72
2024/01/24 11:10:43;;;;;;;14.70;5.90;;;11.30;99.90;;;;;;5055693;28;20475;-72
2024/01/24 11:13:13;;;;;;;25.07;6.13;;;11.30;99.90;;;;;;5058430;28;20412;-72
2024/01/24 11:15:40;;;;;;;16.60;5.10;;;11.30;99.90;;;;;;5062440;28;21431;-71
2024/01/24 11:18:20;;;;;;;21.13;5.40;;;11.30;99.90;;;;;;5074671;28;20445;-70
2024/01/24 11:20:47;;;;;;;24.00;5.60;;;11.30;99.90;;;;;;5058841;28;20522;-72
2024/01/24 11:23:43;;;;;;;19.90;7.47;;;11.30;99.90;;;;;;5074402;28;20448;-71
2024/01/24 11:26:19;;;;;;;19.53;4.80;;;11.30;99.90;;;;;;5092086;28;20412;-71
2024/01/24 11:28:46;;;;;;;18.93;5.17;;;11.30;99.90;;;;;;5094339;28;21202;-71
2024/01/24 11:31:13;;;;;;;15.93;5.13;;;11.30;99.90;;;;;;5077493;28;20436;-71
2024/01/24 11:34:04;;;;;;;21.63;5.43;;;11.30;99.90;;;;;;5055745;28;20758;-71
2024/01/24 11:36:31;;;;;;;18.77;5.37;;;11.30;99.90;;;;;;5076711;28;20423;-72
2024/01/24 11:38:57;;;;;;;22.43;6.70;;;11.30;99.90;;;;;;5096355;28;20439;-70
2024/01/24 11:41:26;;;;;;;18.20;6.50;;;11.30;99.90;;;;;;5065291;28;21086;-69
2024/01/24 11:43:53;;;;;;;21.07;6.20;;;11.30;99.90;;;;;;5079800;28;21243;-69
2024/01/24 11:46:21;;;;;;;26.27;6.30;;;11.30;99.90;;;;;;5064771;28;20438;-71
2024/01/24 11:48:52;;;;;;;21.47;5.80;;;11.30;99.90;;;;;;5063051;28;20493;-70
2024/01/24 11:51:23;;;;;;;21.63;6.00;;;11.30;99.90;;;;;;5060816;28;20527;-69
2024/01/24 11:54:00;;;;;;;28.97;5.70;;;11.30;99.90;;;;;;5069216;28;20460;-70
2024/01/24 11:56:34;;;;;;;25.30;5.93;;;11.30;99.90;;;;;;5061665;28;20440;-72
2024/01/24 11:59:00;;;;;;;21.70;6.30;;;11.30;99.90;;;;;;5076142;28;20443;-69
2024/01/24 12:01:29;;;;;;;27.80;6.07;;;11.30;99.90;;;;;;5084056;28;20431;-70
2024/01/24 12:03:55;;;;;;;26.03;7.50;;;11.30;99.90;;;;;;5097000;28;20455;-70
2024/01/24 12:06:21;;;;;;;26.60;6.60;;;11.30;99.90;;;;;;5098270;28;20424;-70
2024/01/24 12:08:47;;;;;;;17.93;5.80;;;11.30;99.90;;;;;;5076038;28;20471;-69
2024/01/24 12:11:14;;;;;;;20.60;5.43;;;11.30;99.90;;;;;;5082341;28;20442;-69
2024/01/24 12:13:40;;;;;;;20.17;5.77;;;11.30;99.90;;;;;;5084037;28;20527;-70
2024/01/24 12:16:09;;;;;;;21.57;5.40;;;11.30;99.90;;;;;;5045036;28;20966;-70
2024/01/24 12:18:37;;;;;;;19.93;5.40;;;11.40;99.90;;;;;;5077044;28;20982;-70
2024/01/24 12:21:09;;;;;;;20.00;6.00;;;11.30;99.90;;;;;;5055388;28;21224;-70
2024/01/24 12:23:35;;;;;;;28.53;6.40;;;11.40;99.90;;;;;;5063850;28;20469;-70
2024/01/24 12:26:04;;;;;;;16.43;5.87;;;11.40;99.90;;;;;;5079778;28;20952;-70
2024/01/24 12:28:32;;;;;;;18.80;6.10;;;11.40;99.90;;;;;;5078574;28;20475;-70
2024/01/24 12:31:04;;;;;;;32.53;6.03;;;11.30;99.90;;;;;;5064469;28;20459;-70
2024/01/24 12:33:32;;;;;;;16.63;6.63;;;11.30;99.90;;;;;;5098084;28;20436;-69
2024/01/24 12:36:04;;;;;;;17.63;5.37;;;11.30;99.90;;;;;;5058169;28;20425;-70
2024/01/24 12:38:30;;;;;;;26.23;5.20;;;11.30;99.90;;;;;;5077898;28;20423;-68
2024/01/24 12:40:56;;;;;;;21.90;7.23;;;11.40;99.90;;;;;;5066176;28;20428;-69
2024/01/24 12:43:25;;;;;;;19.97;6.13;;;11.30;99.90;;;;;;5074832;28;20440;-70
2024/01/24 12:45:55;;;;;;;21.17;6.47;;;11.30;99.90;;;;;;5077419;28;20436;-69
2024/01/24 12:48:22;;;;;;;18.10;5.53;;;11.40;99.90;;;;;;5094041;28;20471;-68